createdAt,value
2019-01-14T00:02:24.271Z,90.20
2019-01-14T00:04:55.540Z,90.20
2019-01-14T00:07:18.623Z,90.20
2019-01-14T00:09:44.803Z,90.30
2019-01-14T00:12:11.049Z,90.30
2019-01-14T00:14:37.248Z,90.40
2019-01-14T00:17:05.104Z,90.40
2019-01-14T00:19:31.415Z,90.40
2019-01-14T00:21:57.905Z,90.50
2019-01-14T00:24:24.107Z,90.50
2019-01-14T00:26:50.478Z,90.70
2019-01-14T00:29:16.658Z,90.70
2019-01-14T00:31:42.883Z,90.80
2019-01-14T00:34:09.724Z,90.90
2019-01-14T00:36:35.988Z,90.90
2019-01-14T00:39:05.510Z,90.90
2019-01-14T00:41:32.019Z,90.90
2019-01-14T00:43:58.249Z,90.80
2019-01-14T00:46:24.468Z,90.80
2019-01-14T00:48:51.000Z,90.80
2019-01-14T00:51:17.180Z,90.90
2019-01-14T00:53:43.662Z,90.80
2019-01-14T00:56:09.897Z,90.70
2019-01-14T00:58:36.108Z,90.60
2019-01-14T01:01:02.540Z,90.60
2019-01-14T01:03:29.037Z,90.60
2019-01-14T01:05:55.201Z,90.50
2019-01-14T01:08:21.437Z,90.50
2019-01-14T01:10:47.687Z,90.30
2019-01-14T01:13:14.289Z,90.30
2019-01-14T01:15:40.570Z,90.20
2019-01-14T01:18:06.791Z,90.20
2019-01-14T01:20:33.419Z,90.20
2019-01-14T01:22:59.634Z,90.10
2019-01-14T01:25:25.979Z,90.10
2019-01-14T01:27:52.228Z,90.10
2019-01-14T01:30:18.407Z,90.00
2019-01-14T01:32:44.729Z,89.90
2019-01-14T01:35:12.633Z,89.80
2019-01-14T01:37:38.935Z,89.80
2019-01-14T01:40:12.601Z,89.80
2019-01-14T01:42:38.853Z,89.90
2019-01-14T01:45:08.549Z,90.00
2019-01-14T01:47:34.980Z,90.10
2019-01-14T01:50:01.147Z,90.20
2019-01-14T01:52:27.354Z,90.30
2019-01-14T01:54:53.597Z,90.50
2019-01-14T01:57:19.831Z,90.60
2019-01-14T01:59:46.565Z,90.70
2019-01-14T02:02:13.190Z,90.80
2019-01-14T02:04:39.424Z,91.20
2019-01-14T02:07:05.625Z,91.10
2019-01-14T02:09:31.852Z,91.20
2019-01-14T02:11:58.222Z,91.20
2019-01-14T02:14:24.749Z,91.20
2019-01-14T02:16:51.039Z,91.20
2019-01-14T02:19:17.232Z,91.10
2019-01-14T02:21:43.430Z,90.90
2019-01-14T02:24:09.705Z,90.80
2019-01-14T02:26:35.963Z,90.70
2019-01-14T02:29:03.555Z,90.60
2019-01-14T02:31:29.774Z,91.00
2019-01-14T02:33:56.007Z,90.70
2019-01-14T02:36:22.205Z,90.60
2019-01-14T02:38:48.699Z,90.50
2019-01-14T02:41:14.926Z,90.60
2019-01-14T02:43:41.266Z,90.40
2019-01-14T02:46:07.500Z,90.20
2019-01-14T02:48:33.704Z,90.00
2019-01-14T02:50:59.894Z,89.60
2019-01-14T02:53:26.176Z,89.60
2019-01-14T02:55:52.656Z,89.30
2019-01-14T02:58:18.974Z,88.70
2019-01-14T03:00:45.165Z,88.40
2019-01-14T03:03:11.343Z,88.20
2019-01-14T03:05:37.636Z,88.30
2019-01-14T03:08:03.965Z,88.30
2019-01-14T03:10:30.156Z,88.20
2019-01-14T03:12:56.367Z,88.40
2019-01-14T03:15:23.197Z,88.20
2019-01-14T03:17:49.357Z,88.30
2019-01-14T03:20:16.075Z,89.30
2019-01-14T03:22:42.355Z,88.40
2019-01-14T03:25:11.200Z,88.90
2019-01-14T03:27:37.740Z,88.70
2019-01-14T03:30:09.372Z,88.30
2019-01-14T03:32:36.471Z,88.90
2019-01-14T03:35:05.539Z,88.80
2019-01-14T03:37:31.796Z,89.30
2019-01-14T03:39:58.025Z,89.30
2019-01-14T03:42:24.210Z,89.30
2019-01-14T03:44:50.452Z,88.90
2019-01-14T03:47:16.647Z,89.20
2019-01-14T03:49:42.911Z,88.90
2019-01-14T03:52:09.105Z,89.10
2019-01-14T03:54:35.538Z,89.10
2019-01-14T03:57:02.127Z,88.90
2019-01-14T03:59:28.370Z,88.80
2019-01-14T04:01:54.862Z,88.70
2019-01-14T04:04:21.067Z,88.90
2019-01-14T04:06:47.241Z,88.70
2019-01-14T04:09:13.440Z,88.50
2019-01-14T04:11:39.666Z,88.70
2019-01-14T04:14:05.869Z,88.90
2019-01-14T04:16:39.169Z,89.00
2019-01-14T04:19:05.399Z,88.60
2019-01-14T04:21:31.591Z,88.60
2019-01-14T04:23:57.954Z,88.40
2019-01-14T04:26:24.157Z,88.60
2019-01-14T04:28:50.366Z,89.00
2019-01-14T04:31:19.261Z,88.70
2019-01-14T04:33:45.457Z,88.80
2019-01-14T04:36:11.683Z,89.10
2019-01-14T04:38:38.404Z,89.00
2019-01-14T04:41:04.634Z,88.40
2019-01-14T04:43:30.816Z,88.40
2019-01-14T04:45:57.041Z,88.30
2019-01-14T04:48:23.257Z,87.90
2019-01-14T04:50:49.576Z,88.50
2019-01-14T04:53:15.690Z,88.00
2019-01-14T04:55:41.913Z,88.20
2019-01-14T04:58:08.164Z,88.40
2019-01-14T05:00:34.406Z,87.90
2019-01-14T05:03:00.988Z,88.00
2019-01-14T05:05:27.619Z,88.20
2019-01-14T05:07:54.157Z,88.20
2019-01-14T05:10:20.572Z,88.00
2019-01-14T05:12:47.045Z,88.50
2019-01-14T05:15:13.353Z,88.40
2019-01-14T05:17:39.726Z,88.30
2019-01-14T05:20:11.612Z,88.10
2019-01-14T05:22:37.938Z,87.90
2019-01-14T05:25:06.703Z,88.00
2019-01-14T05:27:33.473Z,87.90
2019-01-14T05:29:59.640Z,87.80
2019-01-14T05:32:25.956Z,87.80
2019-01-14T05:34:52.217Z,87.30
2019-01-14T05:37:18.420Z,87.70
2019-01-14T05:39:44.681Z,87.00
2019-01-14T05:42:10.895Z,86.50
2019-01-14T05:44:37.073Z,86.30
2019-01-14T05:47:03.333Z,86.00
2019-01-14T05:49:29.781Z,85.40
2019-01-14T05:51:56.025Z,85.40
2019-01-14T05:54:22.538Z,85.50
2019-01-14T05:56:48.995Z,85.60
2019-01-14T05:59:15.199Z,85.50
2019-01-14T06:01:41.468Z,85.50
2019-01-14T06:04:07.648Z,85.70
2019-01-14T06:06:33.879Z,85.40
2019-01-14T06:09:00.102Z,85.90
2019-01-14T06:11:26.324Z,86.00
2019-01-14T06:13:52.825Z,86.50
2019-01-14T06:16:19.041Z,86.60
2019-01-14T06:18:45.247Z,87.00
2019-01-14T06:21:11.480Z,86.60
2019-01-14T06:23:37.675Z,86.70
2019-01-14T06:26:04.100Z,86.90
2019-01-14T06:28:30.300Z,87.10
2019-01-14T06:30:56.554Z,87.10
2019-01-14T06:33:22.742Z,87.40
2019-01-14T06:35:48.948Z,87.90
2019-01-14T06:38:15.482Z,88.10
2019-01-14T06:40:41.684Z,88.00
2019-01-14T06:43:07.966Z,88.20
2019-01-14T06:45:34.166Z,87.90
2019-01-14T06:48:02.285Z,87.50
2019-01-14T06:50:28.472Z,87.60
2019-01-14T06:52:54.669Z,87.70
2019-01-14T06:55:20.988Z,88.40
2019-01-14T06:57:47.221Z,88.60
2019-01-14T07:00:24.093Z,89.00
2019-01-14T07:02:50.627Z,88.80
2019-01-14T07:05:18.432Z,88.70
2019-01-14T07:07:44.734Z,89.00
2019-01-14T07:10:16.615Z,89.10
2019-01-14T07:12:42.865Z,89.30
2019-01-14T07:15:09.358Z,89.30
2019-01-14T07:17:35.560Z,89.50
2019-01-14T07:20:05.048Z,89.70
2019-01-14T07:22:31.253Z,90.00
2019-01-14T07:24:57.594Z,90.00
2019-01-14T07:27:23.804Z,90.10
2019-01-14T07:29:51.136Z,90.10
2019-01-14T07:32:17.466Z,90.20
2019-01-14T07:34:43.639Z,90.00
2019-01-14T07:37:10.146Z,90.10
2019-01-14T07:39:36.377Z,90.10
2019-01-14T07:42:02.748Z,90.00
2019-01-14T07:44:29.978Z,90.00
2019-01-14T07:46:56.189Z,89.50
2019-01-14T07:49:22.393Z,89.60
2019-01-14T07:51:48.920Z,89.50
2019-01-14T07:54:15.052Z,89.70
2019-01-14T07:56:42.200Z,89.70
2019-01-14T07:59:08.924Z,89.60
2019-01-14T08:01:35.088Z,89.90
2019-01-14T08:04:01.320Z,90.10
2019-01-14T08:06:27.555Z,90.80
2019-01-14T08:08:53.785Z,90.30
2019-01-14T08:11:19.994Z,90.40
2019-01-14T08:13:46.745Z,90.30
2019-01-14T08:16:12.950Z,90.10
2019-01-14T08:18:39.147Z,89.70
2019-01-14T08:21:05.435Z,89.90
2019-01-14T08:23:31.694Z,89.80
2019-01-14T08:25:57.890Z,89.60
2019-01-14T08:28:24.108Z,89.20
2019-01-14T08:30:50.316Z,89.00
2019-01-14T08:33:16.546Z,89.10
2019-01-14T08:35:42.772Z,89.20
2019-01-14T08:38:11.875Z,89.30
2019-01-14T08:40:38.203Z,88.90
2019-01-14T08:43:04.875Z,89.20
2019-01-14T08:45:31.161Z,89.70
2019-01-14T08:47:57.495Z,89.60
2019-01-14T08:50:23.689Z,90.00
2019-01-14T08:52:50.268Z,90.00
2019-01-14T08:55:16.872Z,90.00
2019-01-14T08:57:43.192Z,89.50
2019-01-14T09:00:16.568Z,89.60
2019-01-14T09:02:44.765Z,89.50
2019-01-14T09:05:11.234Z,89.10
2019-01-14T09:07:39.594Z,88.70
2019-01-14T09:10:15.722Z,88.90
2019-01-14T09:12:43.175Z,88.70
2019-01-14T09:15:16.590Z,88.90
2019-01-14T09:17:43.528Z,89.30
2019-01-14T09:20:17.819Z,89.50
2019-01-14T09:22:44.077Z,90.00
2019-01-14T09:25:10.678Z,90.10
2019-01-14T09:27:37.648Z,90.20
2019-01-14T09:30:17.378Z,90.60
2019-01-14T09:32:44.180Z,90.70
2019-01-14T09:35:10.575Z,90.80
2019-01-14T09:37:36.790Z,90.70
2019-01-14T09:40:12.932Z,90.40
2019-01-14T09:42:39.351Z,90.10
2019-01-14T09:45:07.962Z,90.10
2019-01-14T09:47:34.202Z,89.50
2019-01-14T09:50:05.137Z,88.70
2019-01-14T09:52:31.653Z,88.70
2019-01-14T09:54:57.865Z,88.50
2019-01-14T09:57:24.044Z,87.90
2019-01-14T09:59:52.242Z,87.90
2019-01-14T10:02:21.660Z,88.10
2019-01-14T10:04:47.808Z,87.90
2019-01-14T10:07:14.029Z,87.80
2019-01-14T10:09:40.258Z,88.60
2019-01-14T10:12:06.510Z,89.00
2019-01-14T10:14:32.726Z,89.20
2019-01-14T10:16:59.132Z,89.20
2019-01-14T10:19:25.599Z,88.60
2019-01-14T10:21:51.754Z,88.30
2019-01-14T10:24:18.064Z,88.70
2019-01-14T10:26:44.407Z,88.20
2019-01-14T10:29:10.670Z,88.20
2019-01-14T10:31:37.058Z,88.10
2019-01-14T10:34:03.374Z,87.50
2019-01-14T10:36:29.634Z,87.50
2019-01-14T10:38:55.846Z,87.90
2019-01-14T10:41:22.053Z,87.40
2019-01-14T10:43:48.257Z,87.70
2019-01-14T10:46:14.556Z,87.70
2019-01-14T10:48:40.764Z,87.70
2019-01-14T10:51:07.375Z,87.60
2019-01-14T10:53:33.603Z,89.50
2019-01-14T10:55:59.771Z,90.60
2019-01-14T10:58:26.112Z,91.50
2019-01-14T11:00:52.300Z,92.00
2019-01-14T11:03:18.532Z,92.10
2019-01-14T11:05:44.820Z,91.50
2019-01-14T11:08:10.988Z,91.60
2019-01-14T11:10:37.213Z,91.80
2019-01-14T11:13:04.031Z,92.00
2019-01-14T11:15:30.253Z,91.80
2019-01-14T11:17:56.417Z,91.10
2019-01-14T11:20:26.461Z,90.30
2019-01-14T11:22:52.757Z,90.10
2019-01-14T11:25:19.159Z,89.50
2019-01-14T11:27:45.337Z,88.60
2019-01-14T11:30:22.106Z,88.70
2019-01-14T11:32:48.592Z,87.40
2019-01-14T11:35:14.888Z,86.70
2019-01-14T11:37:41.088Z,85.40
2019-01-14T11:40:11.494Z,85.30
2019-01-14T11:42:37.675Z,85.40
2019-01-14T11:45:08.287Z,84.60
2019-01-14T11:47:34.475Z,84.30
2019-01-14T11:50:00.775Z,84.40
2019-01-14T11:52:26.948Z,84.00
2019-01-14T11:54:53.247Z,84.80
2019-01-14T11:57:21.555Z,84.30
2019-01-14T11:59:48.096Z,83.90
2019-01-14T12:02:14.389Z,84.10
2019-01-14T12:04:42.499Z,84.30
2019-01-14T12:07:08.676Z,85.30
2019-01-14T12:09:36.797Z,85.90
2019-01-14T12:12:03.190Z,86.60
2019-01-14T12:14:31.375Z,87.20
2019-01-14T12:16:59.536Z,87.50
2019-01-14T12:19:25.777Z,87.50
2019-01-14T12:21:51.982Z,88.80
2019-01-14T12:24:18.353Z,90.30
2019-01-14T12:26:44.959Z,91.20
2019-01-14T12:29:13.679Z,91.80
2019-01-14T12:31:40.246Z,92.20
2019-01-14T12:34:06.459Z,91.70
2019-01-14T12:36:32.641Z,91.00
2019-01-14T12:39:00.759Z,89.80
2019-01-14T12:41:29.025Z,86.30
2019-01-14T12:43:55.367Z,83.20
2019-01-14T12:46:21.792Z,81.30
2019-01-14T12:48:52.537Z,80.40
2019-01-14T12:51:18.855Z,80.30
2019-01-14T12:53:45.140Z,81.00
2019-01-14T12:56:11.338Z,82.50
2019-01-14T12:58:37.692Z,83.80
2019-01-14T13:01:03.946Z,85.60
2019-01-14T13:03:31.185Z,87.70
2019-01-14T13:05:57.383Z,89.70
2019-01-14T13:08:23.567Z,90.60
2019-01-14T13:10:50.235Z,91.20
2019-01-14T13:13:16.748Z,91.60
2019-01-14T13:15:42.956Z,92.00
2019-01-14T13:18:09.113Z,92.10
2019-01-14T13:20:35.398Z,91.50
2019-01-14T13:23:01.612Z,90.60
2019-01-14T13:25:27.817Z,89.00
2019-01-14T13:27:56.806Z,87.00
2019-01-14T13:30:26.926Z,85.20
2019-01-14T13:32:56.597Z,83.70
2019-01-14T13:35:22.929Z,83.30
2019-01-14T13:37:50.079Z,82.90
2019-01-14T13:40:16.346Z,82.40
2019-01-14T13:42:42.737Z,82.30
2019-01-14T13:45:18.187Z,82.50
2019-01-14T13:47:44.605Z,82.80
2019-01-14T13:50:14.916Z,83.20
2019-01-14T13:52:44.131Z,83.90
2019-01-14T13:55:10.701Z,84.00
2019-01-14T13:57:36.927Z,84.60
2019-01-14T14:00:11.406Z,85.10
2019-01-14T14:02:37.584Z,85.40
2019-01-14T14:05:06.121Z,85.50
2019-01-14T14:07:32.372Z,85.80
2019-01-14T14:09:58.567Z,86.20
2019-01-14T14:12:24.816Z,86.30
2019-01-14T14:14:51.012Z,86.40
2019-01-14T14:17:17.669Z,86.60
2019-01-14T14:19:43.827Z,86.40
2019-01-14T14:22:11.749Z,86.30
2019-01-14T14:24:38.247Z,85.80
2019-01-14T14:27:04.523Z,85.20
2019-01-14T14:29:30.743Z,84.50
2019-01-14T14:31:56.941Z,84.10
2019-01-14T14:34:23.120Z,84.00
2019-01-14T14:36:49.695Z,84.20
2019-01-14T14:39:15.886Z,84.50
2019-01-14T14:41:42.093Z,85.10
2019-01-14T14:44:08.309Z,85.60
2019-01-14T14:46:34.844Z,85.80
2019-01-14T14:49:01.024Z,86.40
2019-01-14T14:51:27.237Z,86.80
2019-01-14T14:53:53.756Z,87.10
2019-01-14T14:56:20.008Z,87.70
2019-01-14T14:58:46.262Z,88.20
2019-01-14T15:01:12.759Z,88.50
2019-01-14T15:03:38.929Z,88.70
2019-01-14T15:06:05.142Z,88.70
2019-01-14T15:08:31.680Z,88.80
2019-01-14T15:11:00.828Z,88.70
2019-01-14T15:13:27.005Z,88.80
2019-01-14T15:15:53.236Z,88.90
2019-01-14T15:18:19.766Z,88.80
2019-01-14T15:20:45.950Z,89.20
2019-01-14T15:23:12.172Z,89.00
2019-01-14T15:25:38.356Z,88.70
2019-01-14T15:28:04.562Z,89.00
2019-01-14T15:30:31.149Z,89.40
2019-01-14T15:32:57.395Z,89.20
2019-01-14T15:35:24.996Z,89.00
2019-01-14T15:37:51.317Z,88.30
2019-01-14T15:40:19.398Z,87.90
2019-01-14T15:42:45.637Z,87.90
2019-01-14T15:45:18.091Z,87.40
2019-01-14T15:47:44.434Z,86.70
2019-01-14T15:50:12.503Z,86.50
2019-01-14T15:52:38.719Z,86.20
2019-01-14T15:55:12.992Z,86.10
2019-01-14T15:57:39.308Z,86.80
2019-01-14T16:00:12.297Z,86.20
2019-01-14T16:02:38.553Z,86.80
2019-01-14T16:05:05.946Z,86.10
2019-01-14T16:07:32.185Z,86.00
2019-01-14T16:09:58.668Z,85.80
2019-01-14T16:12:24.891Z,85.90
2019-01-14T16:14:51.099Z,85.70
2019-01-14T16:17:17.350Z,85.90
2019-01-14T16:19:43.540Z,86.20
2019-01-14T16:22:09.756Z,86.10
2019-01-14T16:24:35.959Z,86.20
2019-01-14T16:27:03.651Z,86.30
2019-01-14T16:29:29.833Z,86.00
2019-01-14T16:31:56.075Z,85.90
2019-01-14T16:34:22.244Z,85.60
2019-01-14T16:36:48.427Z,85.50
2019-01-14T16:39:14.746Z,85.90
2019-01-14T16:41:40.937Z,86.00
2019-01-14T16:44:07.429Z,86.20
2019-01-14T16:46:33.634Z,87.00
2019-01-14T16:48:59.862Z,86.50
2019-01-14T16:51:26.377Z,86.30
2019-01-14T16:53:52.731Z,86.10
2019-01-14T16:56:18.908Z,85.80
2019-01-14T16:58:45.248Z,86.10
2019-01-14T17:01:12.117Z,85.90
2019-01-14T17:03:38.318Z,85.90
2019-01-14T17:06:04.536Z,86.00
2019-01-14T17:08:30.805Z,86.50
2019-01-14T17:10:56.979Z,86.80
2019-01-14T17:13:23.513Z,87.00
2019-01-14T17:15:49.731Z,87.50
2019-01-14T17:18:15.950Z,87.80
2019-01-14T17:20:42.452Z,87.50
2019-01-14T17:23:08.942Z,87.40
2019-01-14T17:25:35.168Z,87.40
2019-01-14T17:28:02.077Z,87.70
2019-01-14T17:30:28.257Z,87.80
2019-01-14T17:32:54.648Z,87.90
2019-01-14T17:35:20.855Z,87.70
2019-01-14T17:37:47.100Z,87.50
2019-01-14T17:40:17.302Z,87.70
2019-01-14T17:42:43.656Z,87.70
2019-01-14T17:45:09.960Z,87.90
2019-01-14T17:47:37.586Z,88.00
2019-01-14T17:50:09.056Z,88.10
2019-01-14T17:52:35.213Z,88.00
2019-01-14T17:55:01.457Z,88.10
2019-01-14T17:57:27.721Z,88.30
2019-01-14T17:59:54.008Z,88.50
2019-01-14T18:02:27.798Z,88.50
2019-01-14T18:04:53.869Z,88.40
2019-01-14T18:07:20.061Z,88.50
2019-01-14T18:09:46.299Z,88.50
2019-01-14T18:12:12.505Z,88.70
2019-01-14T18:14:40.318Z,88.80
2019-01-14T18:17:06.517Z,88.80
2019-01-14T18:19:32.777Z,88.60
2019-01-14T18:21:59.262Z,88.90
2019-01-14T18:24:25.512Z,89.00
2019-01-14T18:26:51.893Z,88.90
2019-01-14T18:29:18.195Z,88.60
2019-01-14T18:31:44.395Z,88.50
2019-01-14T18:34:10.706Z,88.30
2019-01-14T18:36:36.894Z,88.10
2019-01-14T18:39:06.308Z,88.30
2019-01-14T18:41:32.570Z,88.20
2019-01-14T18:43:58.785Z,88.10
2019-01-14T18:46:25.197Z,88.00
2019-01-14T18:48:51.451Z,88.30
2019-01-14T18:51:17.630Z,88.30
2019-01-14T18:53:43.813Z,88.20
2019-01-14T18:56:10.454Z,88.30
2019-01-14T18:58:36.781Z,88.20
2019-01-14T19:01:02.993Z,88.10
2019-01-14T19:03:29.183Z,88.20
2019-01-14T19:05:56.299Z,88.30
2019-01-14T19:08:22.475Z,88.40
2019-01-14T19:10:54.329Z,88.70
2019-01-14T19:13:17.159Z,88.50
2019-01-14T19:15:43.494Z,88.20
2019-01-14T19:18:10.082Z,88.00
2019-01-14T19:20:37.084Z,88.20
2019-01-14T19:23:03.893Z,88.00
2019-01-14T19:25:30.488Z,88.20
2019-01-14T19:27:56.632Z,88.40
2019-01-14T19:30:25.605Z,88.80
2019-01-14T19:32:51.818Z,89.20
2019-01-14T19:35:18.109Z,89.70
2019-01-14T19:37:44.420Z,89.50
2019-01-14T19:40:14.745Z,89.50
2019-01-14T19:42:40.933Z,89.10
2019-01-14T19:45:10.510Z,89.10
2019-01-14T19:47:40.142Z,89.00
2019-01-14T19:50:14.427Z,88.90
2019-01-14T19:52:40.584Z,88.80
2019-01-14T19:55:07.021Z,88.70
2019-01-14T19:57:33.287Z,88.20
2019-01-14T20:00:01.775Z,88.60
2019-01-14T20:02:29.940Z,88.50
2019-01-14T20:04:56.498Z,88.50
2019-01-14T20:07:24.747Z,88.70
2019-01-14T20:09:50.948Z,88.30
2019-01-14T20:12:18.453Z,88.60
2019-01-14T20:14:47.021Z,88.40
2019-01-14T20:17:13.366Z,88.60
2019-01-14T20:19:43.726Z,88.30
2019-01-14T20:22:09.998Z,88.30
2019-01-14T20:24:36.201Z,88.50
2019-01-14T20:27:05.533Z,88.70
2019-01-14T20:29:34.143Z,88.90
2019-01-14T20:32:05.619Z,88.80
2019-01-14T20:34:32.214Z,88.80
2019-01-14T20:36:58.646Z,89.30
2019-01-14T20:39:28.975Z,89.20
2019-01-14T20:41:58.142Z,89.40
2019-01-14T20:44:27.313Z,89.10
2019-01-14T20:46:54.428Z,89.20
2019-01-14T20:49:20.687Z,89.10
2019-01-14T20:51:47.230Z,88.70
2019-01-14T20:54:13.549Z,88.70
2019-01-14T20:56:40.107Z,88.90
2019-01-14T20:59:06.866Z,89.10
2019-01-14T21:01:33.221Z,89.10
2019-01-14T21:03:59.868Z,89.30
2019-01-14T21:06:28.181Z,89.30
2019-01-14T21:08:55.383Z,89.40
2019-01-14T21:11:24.073Z,89.40
2019-01-14T21:13:53.276Z,89.30
2019-01-14T21:16:20.242Z,89.50
2019-01-14T21:18:48.383Z,89.60
2019-01-14T21:21:15.110Z,89.60
2019-01-14T21:23:41.466Z,89.30
2019-01-14T21:26:12.894Z,89.10
2019-01-14T21:28:44.380Z,89.10
2019-01-14T21:31:10.869Z,89.30
2019-01-14T21:33:38.396Z,89.30
2019-01-14T21:36:05.449Z,89.40
2019-01-14T21:38:31.908Z,90.00
2019-01-14T21:40:58.644Z,89.50
2019-01-14T21:43:25.122Z,89.30
2019-01-14T21:45:51.924Z,89.20
2019-01-14T21:48:18.194Z,89.40
2019-01-14T21:50:47.757Z,90.00
2019-01-14T21:53:14.359Z,89.00
2019-01-14T21:55:41.769Z,89.20
2019-01-14T21:58:11.409Z,89.40
2019-01-14T22:00:38.198Z,89.00
2019-01-14T22:03:05.090Z,88.80
2019-01-14T22:05:33.964Z,89.00
2019-01-14T22:08:02.638Z,89.00
2019-01-14T22:10:28.925Z,89.00
2019-01-14T22:12:55.332Z,89.10
2019-01-14T22:15:21.945Z,89.10
2019-01-14T22:17:48.203Z,89.40
2019-01-14T22:20:21.428Z,89.40
2019-01-14T22:22:47.694Z,89.40
2019-01-14T22:25:13.925Z,89.40
2019-01-14T22:27:40.299Z,89.30
2019-01-14T22:30:16.926Z,89.30
2019-01-14T22:32:43.220Z,89.50
2019-01-14T22:35:09.450Z,89.50
2019-01-14T22:37:42.407Z,89.50
2019-01-14T22:40:13.508Z,89.60
2019-01-14T22:42:39.677Z,89.90
2019-01-14T22:45:08.925Z,90.20
2019-01-14T22:47:35.317Z,90.30
2019-01-14T22:50:05.931Z,90.40
2019-01-14T22:52:32.274Z,90.40
2019-01-14T22:54:58.457Z,90.60
2019-01-14T22:57:24.799Z,90.60
2019-01-14T22:59:51.019Z,90.50
2019-01-14T23:02:17.213Z,90.40
2019-01-14T23:04:43.725Z,90.30
2019-01-14T23:07:10.027Z,90.40
2019-01-14T23:09:36.375Z,90.40
2019-01-14T23:12:02.915Z,90.40
2019-01-14T23:14:29.148Z,90.50
2019-01-14T23:16:55.484Z,90.50
2019-01-14T23:19:21.749Z,90.50
2019-01-14T23:21:47.933Z,90.40
2019-01-14T23:24:14.216Z,90.20
2019-01-14T23:26:40.383Z,90.20
2019-01-14T23:29:06.673Z,90.20
2019-01-14T23:31:33.133Z,90.20
2019-01-14T23:33:59.377Z,90.30
2019-01-14T23:36:26.017Z,90.30
2019-01-14T23:38:52.415Z,90.40
2019-01-14T23:41:20.597Z,90.20
2019-01-14T23:43:46.763Z,90.30
2019-01-14T23:46:13.006Z,90.30
2019-01-14T23:48:39.230Z,90.30
2019-01-14T23:51:05.458Z,90.30
2019-01-14T23:53:31.959Z,90.20
2019-01-14T23:55:58.288Z,90.60
2019-01-14T23:58:24.674Z,90.30
